createdAt,value
2023-02-12T00:01:25.637Z,6.57
2023-02-12T00:03:54.035Z,6.65
2023-02-12T00:06:22.872Z,5.63
2023-02-12T00:08:51.969Z,5.22
2023-02-12T00:11:22.381Z,5.65
2023-02-12T00:13:50.723Z,5.70
2023-02-12T00:16:21.699Z,4.93
2023-02-12T00:18:53.134Z,5.45
2023-02-12T00:21:22.008Z,4.72
2023-02-12T00:23:50.133Z,4.55
2023-02-12T00:26:19.821Z,4.63
2023-02-12T00:28:50.933Z,4.50
2023-02-12T00:31:24.575Z,4.45
2023-02-12T00:33:52.507Z,4.35
2023-02-12T00:36:22.897Z,4.70
2023-02-12T00:38:53.095Z,4.45
2023-02-12T00:41:21.164Z,3.97
2023-02-12T00:43:49.174Z,4.38
2023-02-12T00:46:17.587Z,4.15
2023-02-12T00:48:45.505Z,3.90
2023-02-12T00:51:13.736Z,3.75
2023-02-12T00:53:41.668Z,3.70
2023-02-12T00:56:09.444Z,3.90
2023-02-12T00:58:37.391Z,4.13
2023-02-12T01:01:07.890Z,3.90
2023-02-12T01:03:37.211Z,3.60
2023-02-12T01:06:06.204Z,3.80
2023-02-12T01:08:34.178Z,3.47
2023-02-12T01:11:03.851Z,3.70
2023-02-12T01:13:33.040Z,3.28
2023-02-12T01:16:09.105Z,3.63
2023-02-12T01:18:37.981Z,4.10
2023-02-12T01:21:12.214Z,3.67
2023-02-12T01:23:40.917Z,4.50
2023-02-12T01:26:11.002Z,4.55
2023-02-12T01:28:40.727Z,4.63
2023-02-12T01:31:14.956Z,5.78
2023-02-12T01:33:43.895Z,5.88
2023-02-12T01:36:12.590Z,5.00
2023-02-12T01:38:40.820Z,4.82
2023-02-12T01:41:15.588Z,5.05
2023-02-12T01:43:44.229Z,4.93
2023-02-12T01:46:15.088Z,4.70
2023-02-12T01:48:45.389Z,4.95
2023-02-12T01:51:19.418Z,4.63
2023-02-12T01:53:52.817Z,4.72
2023-02-12T01:56:21.560Z,4.95
2023-02-12T01:58:52.038Z,4.50
2023-02-12T02:01:23.588Z,4.32
2023-02-12T02:03:55.019Z,4.68
2023-02-12T02:06:51.262Z,4.43
2023-02-12T02:09:20.337Z,4.40
2023-02-12T02:12:06.926Z,4.60
2023-02-12T02:14:35.838Z,4.03
2023-02-12T02:17:16.410Z,4.53
2023-02-12T02:20:22.555Z,4.35
2023-02-12T02:25:39.100Z,3.97
2023-02-12T02:28:12.895Z,3.85
2023-02-12T02:31:04.524Z,4.20
2023-02-12T02:33:44.605Z,3.85
2023-02-12T02:36:15.227Z,4.70
2023-02-12T02:38:57.429Z,3.90
2023-02-12T02:41:37.075Z,4.25
2023-02-12T02:44:10.504Z,3.88
2023-02-12T02:46:50.906Z,3.70
2023-02-12T02:49:26.630Z,3.95
2023-02-12T02:52:00.355Z,4.10
2023-02-12T02:54:37.958Z,3.97
2023-02-12T02:57:16.544Z,3.97
2023-02-12T02:59:48.702Z,3.70
2023-02-12T03:02:26.079Z,4.90
2023-02-12T03:04:58.597Z,4.65
2023-02-12T03:07:30.111Z,4.32
2023-02-12T03:10:12.294Z,4.30
2023-02-12T03:12:44.294Z,4.50
2023-02-12T03:15:21.273Z,4.25
2023-02-12T03:17:50.381Z,4.18
2023-02-12T03:20:30.804Z,5.25
2023-02-12T03:23:07.475Z,4.70
2023-02-12T03:25:59.025Z,4.45
2023-02-12T03:28:35.759Z,4.70
2023-02-12T03:31:25.696Z,4.68
2023-02-12T03:34:02.960Z,4.78
2023-02-12T03:36:45.716Z,4.78
2023-02-12T03:39:21.963Z,4.25
2023-02-12T03:42:02.090Z,4.63
2023-02-12T03:44:45.354Z,4.93
2023-02-12T03:47:28.715Z,4.93
2023-02-12T03:50:18.592Z,4.72
2023-02-12T03:52:46.958Z,4.50
2023-02-12T03:55:16.350Z,4.60
2023-02-12T03:57:53.693Z,4.82
2023-02-12T04:00:24.577Z,4.07
2023-02-12T04:02:53.462Z,4.00
2023-02-12T04:05:30.682Z,4.78
2023-02-12T04:07:59.899Z,4.80
2023-02-12T04:10:51.121Z,4.65
2023-02-12T04:13:29.309Z,4.53
2023-02-12T04:16:51.546Z,4.47
2023-02-12T04:19:55.834Z,4.00
2023-02-12T04:22:45.591Z,4.47
2023-02-12T04:25:52.097Z,4.95
2023-02-12T04:28:47.490Z,4.45
2023-02-12T04:31:25.605Z,4.28
2023-02-12T04:34:23.911Z,4.53
2023-02-12T04:37:27.246Z,4.50
2023-02-12T04:39:55.291Z,4.18
2023-02-12T08:34:34.658Z,6.85
2023-02-12T08:37:04.237Z,6.13
2023-02-12T08:39:32.123Z,5.95
2023-02-12T08:45:54.025Z,6.38
2023-02-12T08:48:21.815Z,6.13
2023-02-12T08:50:49.284Z,6.57
2023-02-12T08:53:17.373Z,6.30
2023-02-12T08:55:51.125Z,7.40
2023-02-12T08:58:18.599Z,7.03
2023-02-12T09:00:47.919Z,5.88
2023-02-12T09:03:15.636Z,6.93
2023-02-12T09:05:43.290Z,7.10
2023-02-12T09:08:10.752Z,6.75
2023-02-12T09:10:43.010Z,7.60
2023-02-12T09:13:12.801Z,7.45
2023-02-12T09:15:45.275Z,7.45
2023-02-12T09:18:14.839Z,7.35
2023-02-12T09:20:45.320Z,6.82
2023-02-12T09:23:14.917Z,7.22
2023-02-12T09:25:45.309Z,7.45
2023-02-12T09:28:14.840Z,7.82
2023-02-12T09:30:42.421Z,7.30
2023-02-12T09:33:12.317Z,8.13
2023-02-12T09:35:40.892Z,8.48
2023-02-12T09:38:09.427Z,8.30
2023-02-12T09:41:05.233Z,7.85
2023-02-12T09:44:02.012Z,7.43
2023-02-12T09:46:40.005Z,8.18
2023-02-12T09:49:37.322Z,9.20
2023-02-12T09:52:05.890Z,8.20
2023-02-12T09:54:39.602Z,9.48
2023-02-12T09:57:17.284Z,12.05
2023-02-12T09:59:59.654Z,10.60
2023-02-12T10:02:27.791Z,14.93
2023-02-12T10:05:01.554Z,14.90
2023-02-12T10:07:45.578Z,15.80
2023-02-12T10:10:31.824Z,17.02
2023-02-12T10:13:20.429Z,18.05
2023-02-12T10:16:14.482Z,18.15
2023-02-12T10:18:52.995Z,17.67
2023-02-12T10:21:45.088Z,17.20
2023-02-12T10:24:27.832Z,17.80
2023-02-12T10:27:18.157Z,16.85
2023-02-12T10:29:47.791Z,14.82
2023-02-12T10:32:26.661Z,15.05
2023-02-12T10:34:55.319Z,13.90
2023-02-12T10:37:37.843Z,14.30
2023-02-12T10:40:23.932Z,14.82
2023-02-12T10:42:53.038Z,13.50
2023-02-12T10:45:30.500Z,12.70
2023-02-12T10:48:21.569Z,12.55
2023-02-12T10:51:08.942Z,13.40
2023-02-12T10:53:43.344Z,11.95
2023-02-12T10:56:19.764Z,12.27
2023-02-12T10:58:59.812Z,13.35
2023-02-12T11:01:29.556Z,11.43
2023-02-12T11:03:59.282Z,11.82
2023-02-12T11:06:34.582Z,12.57
2023-02-12T11:09:13.771Z,11.48
2023-02-12T11:11:41.651Z,10.93
2023-02-12T11:14:20.913Z,10.90
2023-02-12T11:16:57.463Z,10.10
2023-02-12T11:19:30.673Z,11.55
2023-02-12T11:22:19.245Z,10.70
2023-02-12T11:24:47.588Z,10.70
2023-02-12T11:27:28.859Z,11.05
2023-02-12T11:30:12.759Z,10.23
2023-02-12T11:32:44.426Z,10.80
2023-02-12T11:35:33.956Z,9.50
2023-02-12T11:38:02.862Z,10.00
2023-02-12T11:40:34.549Z,9.85
2023-02-12T11:43:09.675Z,10.32
2023-02-12T11:45:55.801Z,9.20
2023-02-12T11:48:30.827Z,10.23
2023-02-12T11:51:00.831Z,9.40
2023-02-12T11:53:32.853Z,11.45
2023-02-12T11:56:04.424Z,13.57
2023-02-12T11:58:33.327Z,14.25
2023-02-12T12:01:19.565Z,15.10
2023-02-12T12:04:20.533Z,13.82
2023-02-12T12:06:59.198Z,13.90
2023-02-12T12:09:42.478Z,14.05
2023-02-12T12:12:23.233Z,14.02
2023-02-12T12:15:29.053Z,12.90
2023-02-12T12:18:36.419Z,13.20
2023-02-12T12:21:25.409Z,11.52
2023-02-12T12:23:59.967Z,12.70
2023-02-12T12:26:34.543Z,11.15
2023-02-12T12:29:24.964Z,11.57
2023-02-12T12:32:00.465Z,10.80
2023-02-12T12:34:29.381Z,9.77
2023-02-12T12:37:17.169Z,11.43
2023-02-12T12:40:03.420Z,11.23
2023-02-12T12:45:29.963Z,8.85
2023-02-12T12:48:25.662Z,10.02
2023-02-12T12:51:25.932Z,9.20
2023-02-12T12:54:25.708Z,8.98
2023-02-12T12:57:28.275Z,9.52
2023-02-12T13:00:30.701Z,7.97
2023-02-12T13:03:10.069Z,9.20
2023-02-12T13:05:59.921Z,7.88
2023-02-12T13:08:52.085Z,7.68
2023-02-12T13:11:38.302Z,8.07
2023-02-12T13:14:16.134Z,7.10
2023-02-12T13:17:12.703Z,6.97
2023-02-12T13:19:49.786Z,7.80
2023-02-12T13:22:31.355Z,6.97
2023-02-12T13:25:16.761Z,5.95
2023-02-12T13:27:45.241Z,5.80
2023-02-12T13:30:56.926Z,6.20
2023-02-12T13:33:43.730Z,6.28
2023-02-12T13:36:14.175Z,5.95
2023-02-12T13:39:23.042Z,5.97
2023-02-12T13:42:08.047Z,5.40
2023-02-12T13:44:57.456Z,5.35
2023-02-12T13:47:49.822Z,4.55
2023-02-12T13:50:44.894Z,4.85
2023-02-12T13:53:32.189Z,4.55
2023-02-12T13:56:15.983Z,5.35
2023-02-12T13:58:52.277Z,5.45
2023-02-12T14:01:38.944Z,5.15
2023-02-12T14:04:22.309Z,5.57
2023-02-12T14:07:16.572Z,5.13
2023-02-12T14:09:55.598Z,4.80
2023-02-12T14:12:26.679Z,4.82
2023-02-12T14:14:57.127Z,4.65
2023-02-12T14:17:31.045Z,6.13
2023-02-12T14:20:26.024Z,5.88
2023-02-12T14:23:04.212Z,5.33
2023-02-12T14:25:40.462Z,5.45
2023-02-12T14:28:15.862Z,4.93
2023-02-12T14:30:44.832Z,4.70
2023-02-12T14:33:22.033Z,5.05
2023-02-12T14:36:11.024Z,4.28
2023-02-12T14:38:47.500Z,3.30
2023-02-12T14:41:55.751Z,4.10
2023-02-12T14:44:23.499Z,4.72
2023-02-12T14:47:13.021Z,4.93
2023-02-12T14:49:52.847Z,4.85
2023-02-12T14:52:25.606Z,4.50
2023-02-12T14:55:02.314Z,4.40
2023-02-12T14:57:30.337Z,3.85
2023-02-12T15:00:04.401Z,4.28
2023-02-12T15:02:39.973Z,4.47
2023-02-12T15:05:26.461Z,4.22
2023-02-12T15:08:00.856Z,3.67
2023-02-12T15:10:40.760Z,3.63
2023-02-12T15:13:14.439Z,4.47
2023-02-12T15:16:10.890Z,4.20
2023-02-12T15:18:41.572Z,4.45
2023-02-12T15:21:23.216Z,3.88
2023-02-12T15:24:07.657Z,3.03
2023-02-12T15:26:59.536Z,3.23
2023-02-12T15:29:36.819Z,3.92
2023-02-12T15:32:07.459Z,4.28
2023-02-12T15:34:40.220Z,3.45
2023-02-12T15:37:11.673Z,2.97
2023-02-12T15:39:45.155Z,3.35
2023-02-12T15:42:34.411Z,3.40
2023-02-12T15:45:20.647Z,3.25
2023-02-12T15:48:09.357Z,2.50
2023-02-12T15:50:56.520Z,3.65
2023-02-12T15:53:27.628Z,2.90
2023-02-12T15:55:56.119Z,2.92
2023-02-12T15:58:52.691Z,2.75
2023-02-12T16:01:28.343Z,2.58
2023-02-12T16:04:00.920Z,2.42
2023-02-12T16:06:31.352Z,2.55
2023-02-12T16:09:34.634Z,3.08
2023-02-12T16:12:11.480Z,2.65
2023-02-12T16:14:46.661Z,2.42
2023-02-12T16:17:33.653Z,2.60
2023-02-12T16:20:22.981Z,2.08
2023-02-12T16:22:52.124Z,2.08
2023-02-12T16:25:28.987Z,2.47
2023-02-12T16:28:06.168Z,2.05
2023-02-12T16:30:43.047Z,2.30
2023-02-12T16:33:32.588Z,2.58
2023-02-12T16:36:06.843Z,2.10
2023-02-12T16:38:45.252Z,1.83
2023-02-12T16:41:24.369Z,2.05
2023-02-12T16:44:18.386Z,2.28
2023-02-12T16:46:55.280Z,2.20
2023-02-12T16:49:25.773Z,1.60
2023-02-12T16:51:56.691Z,1.98
2023-02-12T16:54:32.097Z,1.90
2023-02-12T16:57:00.474Z,1.88
2023-02-12T16:59:31.872Z,1.65
2023-02-12T17:02:02.922Z,1.83
2023-02-12T17:04:31.444Z,2.00
2023-02-12T17:06:59.352Z,1.77
2023-02-12T17:09:29.928Z,1.55
2023-02-12T17:11:58.816Z,1.40
2023-02-12T17:14:26.748Z,1.73
2023-02-12T17:16:54.774Z,1.92
2023-02-12T17:19:23.074Z,1.90
2023-02-12T17:21:52.170Z,1.77
2023-02-12T17:24:24.472Z,1.75
2023-02-12T17:26:55.882Z,1.45
2023-02-12T17:29:25.288Z,2.00
2023-02-12T17:31:54.262Z,2.00
2023-02-12T17:34:23.472Z,2.80
2023-02-12T17:36:51.658Z,3.17
2023-02-12T17:39:28.077Z,8.50
2023-02-12T17:41:56.242Z,10.85
2023-02-12T17:44:24.058Z,14.32
2023-02-12T17:46:52.112Z,13.60
2023-02-12T17:49:20.328Z,13.00
2023-02-12T17:51:48.233Z,13.10
2023-02-12T17:54:17.932Z,12.05
2023-02-12T17:56:45.877Z,12.52
2023-02-12T17:59:14.047Z,13.13
2023-02-12T18:01:42.235Z,11.88
2023-02-12T18:04:10.076Z,12.75
2023-02-12T18:06:38.032Z,12.40
2023-02-12T18:09:06.424Z,11.68
2023-02-12T18:11:34.629Z,10.10
2023-02-12T18:14:02.692Z,11.65
2023-02-12T18:16:33.542Z,9.82
2023-02-12T18:19:04.553Z,9.45
2023-02-12T18:21:34.155Z,8.73
2023-02-12T18:24:02.507Z,8.00
2023-02-12T18:26:30.530Z,7.95
2023-02-12T18:28:59.528Z,6.93
2023-02-12T18:31:30.305Z,7.57
2023-02-12T18:33:58.907Z,6.82
2023-02-12T18:36:27.080Z,6.68
2023-02-12T18:38:55.061Z,6.15
2023-02-12T18:41:25.607Z,5.95
2023-02-12T18:43:55.009Z,4.95
2023-02-12T18:46:25.626Z,5.18
2023-02-12T18:48:54.281Z,4.00
2023-02-12T18:51:27.392Z,3.65
2023-02-12T18:53:56.683Z,4.40
2023-02-12T18:56:24.476Z,4.88
2023-02-12T18:58:57.086Z,4.38
2023-02-12T19:01:25.483Z,4.38
2023-02-12T19:04:00.251Z,3.88
2023-02-12T19:06:29.007Z,4.03
2023-02-12T19:09:02.078Z,3.35
2023-02-12T19:11:31.150Z,3.50
2023-02-12T19:13:59.328Z,3.38
2023-02-12T19:16:27.634Z,3.83
2023-02-12T19:18:58.586Z,3.92
2023-02-12T19:21:26.814Z,3.72
2023-02-12T19:23:56.185Z,3.50
2023-02-12T19:26:24.503Z,3.20
2023-02-12T19:28:52.329Z,3.40
2023-02-12T19:31:22.745Z,3.70
2023-02-12T19:33:53.970Z,3.42
2023-02-12T19:36:24.443Z,3.15
2023-02-12T19:38:53.113Z,3.20
2023-02-12T19:44:51.105Z,3.55
2023-02-12T19:47:18.988Z,3.75
2023-02-12T19:49:46.891Z,3.20
2023-02-12T19:52:14.542Z,3.55
2023-02-12T19:54:45.421Z,3.17
2023-02-12T19:57:13.641Z,3.72
2023-02-12T19:59:45.208Z,2.80
2023-02-12T20:02:16.158Z,2.65
2023-02-12T20:04:44.699Z,2.97
2023-02-12T20:07:12.583Z,3.22
2023-02-12T20:09:40.573Z,3.20
2023-02-12T20:12:11.809Z,3.38
2023-02-12T20:14:39.821Z,3.70
2023-02-12T20:17:07.735Z,3.47
2023-02-12T20:19:38.765Z,3.40
2023-02-12T20:22:06.688Z,3.22
2023-02-12T20:24:35.436Z,4.07
2023-02-12T20:27:06.745Z,3.05
2023-02-12T20:29:34.860Z,3.40
2023-02-12T20:32:02.696Z,3.42
2023-02-12T20:34:33.033Z,3.05
2023-02-12T20:37:08.249Z,3.25
2023-02-12T20:39:36.190Z,3.33
2023-02-12T20:42:04.355Z,2.75
2023-02-12T20:44:34.342Z,3.28
2023-02-12T20:47:03.072Z,3.05
2023-02-12T20:49:30.912Z,2.88
2023-02-12T20:51:58.875Z,3.78
2023-02-12T20:54:26.762Z,3.05
2023-02-12T20:56:54.641Z,4.20
2023-02-12T20:59:22.433Z,4.35
2023-02-12T21:01:50.348Z,4.22
2023-02-12T21:04:19.231Z,3.75
2023-02-12T21:06:48.725Z,4.20
2023-02-12T21:09:17.276Z,3.47
2023-02-12T21:11:48.223Z,3.42
2023-02-12T21:14:24.511Z,3.15
2023-02-12T21:16:55.240Z,3.22
2023-02-12T21:19:23.217Z,3.40
2023-02-12T21:21:51.380Z,3.10
2023-02-12T21:24:22.098Z,3.15
2023-02-12T21:26:50.948Z,2.92
2023-02-12T21:29:19.272Z,3.30
2023-02-12T21:31:49.312Z,2.70
2023-02-12T21:34:20.646Z,3.35
2023-02-12T21:36:49.438Z,3.15
2023-02-12T21:39:27.556Z,2.90
2023-02-12T21:42:02.566Z,2.67
2023-02-12T21:47:01.943Z,2.45
2023-02-12T21:49:29.986Z,3.13
2023-02-12T21:51:59.861Z,3.28
2023-02-12T21:54:29.051Z,2.70
2023-02-12T21:56:57.181Z,2.95
2023-02-12T21:59:25.359Z,2.80
2023-02-12T22:01:58.884Z,3.35
2023-02-12T22:04:27.091Z,3.25
2023-02-12T22:06:56.679Z,3.03
2023-02-12T22:09:24.685Z,3.10
2023-02-12T22:11:52.892Z,2.75
2023-02-12T22:14:21.783Z,3.85
2023-02-12T22:16:49.984Z,4.13
2023-02-12T22:19:17.929Z,4.28
2023-02-12T22:21:45.987Z,3.95
2023-02-12T22:24:16.133Z,4.07
2023-02-12T22:26:44.680Z,4.18
2023-02-12T22:29:15.194Z,3.55
2023-02-12T22:31:44.385Z,3.78
2023-02-12T22:34:16.938Z,3.38
2023-02-12T22:36:45.768Z,3.97
2023-02-12T22:39:14.586Z,3.72
2023-02-12T22:41:42.630Z,3.38
2023-02-12T22:44:13.515Z,3.33
2023-02-12T22:46:42.496Z,3.65
2023-02-12T22:49:10.696Z,3.60
2023-02-12T22:51:40.221Z,3.00
2023-02-12T22:54:10.690Z,3.75
2023-02-12T22:56:38.497Z,2.85
2023-02-12T22:59:06.497Z,3.00
2023-02-12T23:01:34.529Z,3.17
2023-02-12T23:04:02.411Z,3.10
2023-02-12T23:06:31.521Z,3.20
2023-02-12T23:09:03.221Z,2.97
2023-02-12T23:11:32.670Z,3.10
2023-02-12T23:14:01.405Z,3.13
2023-02-12T23:16:29.883Z,3.03
2023-02-12T23:18:58.839Z,2.67
2023-02-12T23:21:28.114Z,3.10
2023-02-12T23:23:56.695Z,2.30
2023-02-12T23:26:24.925Z,3.05
2023-02-12T23:28:53.165Z,2.30
2023-02-12T23:31:21.912Z,2.97
2023-02-12T23:33:50.066Z,2.63
2023-02-12T23:36:18.144Z,2.40
2023-02-12T23:38:46.423Z,2.85
2023-02-12T23:41:14.570Z,2.40
2023-02-12T23:43:42.480Z,2.85
2023-02-12T23:46:10.567Z,2.95
2023-02-12T23:48:38.849Z,2.60
2023-02-12T23:51:07.019Z,2.50
2023-02-12T23:53:35.106Z,2.63
2023-02-12T23:56:03.228Z,2.30
2023-02-12T23:58:31.191Z,2.70
